Latest Weather Observations for Amberley

IDQ60801

Issued at 6:32 am EST Sunday 19 April 2015 (issued every 30 minutes, with the page automatically refreshed every 10 minutes)

About weather observations | Map of weather stations | Latest weather observations for QLD | Other Formats
Station Details ID: 040004 Name: AMBERLEY AMO Lat: -27.63 Lon: 152.71 Height: 24.2 m
Data from the previous 72 hours. | See also: Recent months at Amberley
Date/Time
EST
Temp
°C
App
Temp
°C
Dew
Point
Rel
Hum
%
Delta-T
°C
Wind Press
QNH
hPa
Press
MSL
hPa
Rain
since 9 am
mm
Dir
 
Spd
km/h
Gust
km/h
Spd
kts
Gust
kts
19/06:26am 17.7 18.9 17.4 98 0.2 SW 7 11 4 6 1019.2 - 0.0
19/06:08am 17.3 18.3 16.8 97 0.3 WNW 7 9 4 5 1018.8 - 0.0
19/05:30am 16.6 18.7 16.3 98 0.2 CALM 0 0 0 0 1018.3 - 0.0
19/05:00am 16.7 18.9 16.5 99 0.1 CALM 0 0 0 0 1018.1 - 0.0
19/04:30am 16.6 18.8 16.4 99 0.1 CALM 0 0 0 0 1018.2 - 0.0
19/04:25am 16.7 18.9 16.4 98 0.2 CALM 0 0 0 0 1018.2 - 0.0
19/04:03am 16.3 18.3 16.0 98 0.2 CALM 0 0 0 0 1018.3 - 0.0
19/03:46am 17.6 19.0 17.3 98 0.2 WSW 6 6 3 3 1018.3 - 0.0
19/03:43am 17.6 19.0 17.3 98 0.2 WSW 6 7 3 4 1018.4 - 0.0
19/03:30am 17.4 18.4 16.9 97 0.3 W 7 9 4 5 1018.2 - 0.0
19/03:00am 17.6 20.0 17.1 97 0.3 CALM 0 0 0 0 1018.2 1018.1 0.0
19/02:58am 17.3 19.6 16.8 97 0.3 CALM 0 0 0 0 1018.3 - 0.0
19/02:31am 18.1 20.9 17.9 99 0.1 CALM 0 0 0 0 1018.5 - 0.0
19/02:30am 18.2 21.0 17.9 98 0.2 CALM 0 0 0 0 1018.5 - 0.0
19/01:30am 19.7 22.9 18.9 95 0.5 CALM 0 0 0 0 1019.3 - 0.0
19/01:00am 20.1 23.4 19.1 94 0.6 CALM 0 0 0 0 1019.8 - 0.0
19/12:30am 20.5 23.1 19.2 92 0.8 NNE 4 7 2 4 1020.0 - 0.0
 
Date/Time
EST
Temp
°C
App
Temp
°C
Dew
Point
Rel
Hum
%
Delta-T
°C
Wind Press
QNH
hPa
Press
MSL
hPa
Rain
since 9 am
mm
Dir
 
Spd
km/h
Gust
km/h
Spd
kts
Gust
kts
18/11:30pm 20.1 23.4 19.1 94 0.6 CALM 0 7 0 4 1019.9 - 0.0
18/11:00pm 20.3 22.4 19.3 94 0.6 NNE 7 7 4 4 1020.3 - 0.0
18/10:00pm 22.0 24.0 19.2 84 1.8 NE 7 9 4 5 1020.4 - 0.0
18/09:30pm 22.3 24.4 19.3 83 1.9 NE 7 9 4 5 1020.4 - 0.0
18/09:00pm 22.0 24.4 19.6 86 1.5 NE 6 7 3 4 1020.5 1020.5 0.0
18/08:30pm 22.2 25.5 19.2 83 1.9 CALM 0 4 0 2 1020.5 - 0.0
18/08:00pm 22.5 24.5 19.2 81 2.1 WSW 7 7 4 4 1020.1 - 0.0
18/07:30pm 22.7 25.1 18.9 79 2.4 W 4 6 2 3 1020.1 - 0.0
18/07:00pm 22.6 24.5 18.5 77 2.6 N 6 11 3 6 1019.7 - 0.0
18/06:30pm 23.7 24.7 17.8 69 3.7 NNE 9 13 5 7 1019.4 - 0.0
18/06:00pm 24.1 23.4 17.3 65 4.2 NE 17 20 9 11 1019.1 1019.0 0.0
18/05:30pm 24.3 24.5 16.8 63 4.6 NE 11 17 6 9 1019.1 - 0.0
18/05:00pm 24.8 23.6 16.1 58 5.3 NE 17 24 9 13 1018.9 - 0.0
18/04:30pm 25.3 24.3 15.5 54 5.9 NE 15 22 8 12 1018.7 - 0.0
18/04:00pm 25.8 25.3 16.0 54 6.0 NNE 13 19 7 10 1018.6 - 0.0
18/03:30pm 26.1 24.2 15.8 53 6.3 NNE 20 28 11 15 1018.3 - 0.0
18/03:00pm 26.5 25.1 16.6 54 6.1 NE 19 26 10 14 1018.3 1018.2 0.0
18/02:30pm 27.1 26.8 17.4 55 6.1 NE 15 19 8 10 1018.3 - 0.0
18/02:00pm 26.4 25.3 17.3 57 5.7 ENE 19 26 10 14 1018.6 - 0.0
18/01:30pm 26.8 26.8 17.2 55 6.0 NNE 13 17 7 9 1018.9 - 0.0
18/01:00pm 26.3 26.6 17.1 57 5.7 NE 11 20 6 11 1019.4 - 0.0
18/12:30pm 27.0 26.8 17.6 56 5.9 ENE 15 20 8 11 1019.9 - 0.0
18/12:00pm 26.6 26.1 17.7 58 5.6 NNE 17 24 9 13 1020.6 1020.6 0.0
18/11:30am 26.6 26.6 17.3 56 5.8 ENE 13 20 7 11 1021.2 - 0.0
18/11:00am 26.2 26.9 17.9 60 5.2 NE 11 17 6 9 1021.9 - 0.0
18/10:30am 25.4 25.7 17.9 63 4.7 NNE 13 17 7 9 1022.2 - 0.0
18/10:00am 24.9 26.8 18.9 69 3.8 E 7 15 4 8 1022.6 - 0.0
18/09:30am 23.5 25.4 18.6 74 3.1 SSE 6 11 3 6 1022.9 - 0.0
18/09:00am 22.7 24.6 18.9 79 2.4 SSW 7 9 4 5 1023.0 1023.0 0.6
18/08:30am 21.1 22.4 18.5 85 1.6 SW 9 13 5 7 1023.1 - 0.6
18/08:00am 20.1 20.9 18.2 89 1.2 SW 11 13 6 7 1022.8 - 0.6
18/07:30am 19.2 20.7 18.1 93 0.7 SW 7 9 4 5 1022.7 - 0.6
18/07:00am 17.4 19.8 16.9 97 0.3 CALM 0 0 0 0 1022.3 - 0.6
18/06:30am 16.1 18.0 15.8 98 0.2 CALM 0 0 0 0 1021.9 - 0.6
18/06:00am 15.9 17.3 15.4 97 0.3 SW 2 7 1 4 1021.7 1021.7 0.6
18/05:30am 15.5 16.1 15.2 98 0.2 SW 6 7 3 4 1021.5 - 0.6
18/05:14am 15.8 16.9 15.5 98 0.2 SW 4 7 2 4 1021.4 - 0.6
18/05:00am 16.2 17.8 15.9 98 0.2 SW 2 7 1 4 1021.3 - 0.6
18/04:32am 16.3 17.2 16.0 98 0.2 SW 6 7 3 4 1021.3 - 0.6
18/04:30am 16.4 17.3 16.1 98 0.2 SW 6 7 3 4 1021.3 - 0.6
18/04:25am 16.4 18.1 16.1 98 0.2 SW 2 7 1 4 1021.3 - 0.6
18/04:11am 16.2 18.1 15.7 97 0.3 CALM 0 0 0 0 1021.4 - 0.6
18/04:00am 16.4 18.4 15.9 97 0.3 CALM 0 0 0 0 1021.4 - 0.6
18/03:30am 16.5 18.5 16.0 97 0.3 CALM 0 0 0 0 1021.4 - 0.6
18/03:20am 16.6 18.7 16.3 98 0.2 CALM 0 0 0 0 1021.4 - 0.6
18/03:14am 16.8 18.9 16.3 97 0.3 CALM 0 0 0 0 1021.5 - 0.6
18/03:00am 16.4 18.0 15.9 97 0.3 SW 2 6 1 3 1021.5 1021.5 0.6
18/02:30am 17.4 18.0 16.9 97 0.3 SW 9 11 5 6 1021.6 - 0.6
18/02:00am 18.2 19.1 17.5 96 0.4 SSW 9 13 5 7 1021.9 - 0.6
18/01:30am 17.7 18.0 17.0 96 0.4 S 11 13 6 7 1022.2 - 0.6
18/01:00am 18.1 18.6 17.4 96 0.4 S 11 13 6 7 1022.7 - 0.6
18/12:48am 18.2 19.1 17.5 96 0.4 SSE 9 11 5 6 1022.7 - 0.4
18/12:30am 18.2 19.4 17.4 95 0.5 ENE 7 11 4 6 1022.8 - 0.4
18/12:24am 18.0 19.3 17.0 94 0.6 NE 6 11 3 6 1022.9 - 0.2
18/12:00am 16.8 17.4 15.9 94 0.5 NW 7 9 4 5 1022.6 1022.6 0.0
 
Date/Time
EST
Temp
°C
App
Temp
°C
Dew
Point
Rel
Hum
%
Delta-T
°C
Wind Press
QNH
hPa
Press
MSL
hPa
Rain
since 9 am
mm
Dir
 
Spd
km/h
Gust
km/h
Spd
kts
Gust
kts
17/11:30pm 15.9 16.3 15.2 96 0.4 NW 7 9 4 5 1022.7 - 0.0
17/11:00pm 16.6 18.5 15.7 94 0.5 CALM 0 0 0 0 1023.0 - 0.0
17/10:30pm 16.2 17.9 15.3 94 0.5 CALM 0 0 0 0 1022.9 - 0.0
17/10:00pm 16.3 18.1 15.4 94 0.5 CALM 0 0 0 0 1023.1 - 0.0
17/09:30pm 17.5 19.4 15.8 90 1.0 CALM 0 0 0 0 1022.9 - 0.0
17/09:00pm 19.2 20.1 16.2 83 1.8 SSW 6 7 3 4 1022.9 1022.9 0.0
17/08:30pm 19.4 21.6 16.4 83 1.8 CALM 0 0 0 0 1022.7 - 0.0
17/08:00pm 20.2 21.0 16.4 79 2.3 E 7 9 4 5 1022.7 - 0.0
17/07:30pm 20.9 21.4 16.6 76 2.6 E 9 11 5 6 1022.3 - 0.0
17/07:00pm 21.8 21.8 16.3 71 3.3 ENE 11 15 6 8 1021.9 - 0.0
17/06:30pm 22.3 21.5 16.2 68 3.7 ENE 15 17 8 9 1021.6 - 0.0
17/06:00pm 22.9 22.1 16.1 65 4.1 NE 15 22 8 12 1021.3 1021.3 0.0
17/05:30pm 23.7 22.4 15.9 61 4.7 NE 17 24 9 13 1020.8 - 0.0
17/05:00pm 24.4 22.5 15.8 58 5.2 NE 20 26 11 14 1020.4 - 0.0
17/04:30pm 25.5 23.5 15.6 54 6.0 NE 20 28 11 15 1020.1 - 0.0
17/04:00pm 26.3 23.4 15.0 49 6.8 ENE 24 32 13 17 1019.9 - 0.0
17/03:30pm 27.0 25.0 15.5 49 7.0 ENE 20 28 11 15 1019.7 - 0.0
17/03:00pm 27.3 25.2 14.7 46 7.6 NNE 19 26 10 14 1019.8 1019.7 0.0
17/02:30pm 26.4 24.6 15.5 51 6.6 ENE 19 26 10 14 1019.9 - 0.0
17/02:00pm 27.2 25.4 15.9 50 6.9 ENE 20 22 11 12 1019.9 - 0.0
17/01:30pm 27.5 27.0 15.9 49 7.1 NE 13 24 7 13 1020.4 - 0.0
17/01:00pm 26.8 26.1 16.4 53 6.4 E 15 19 8 10 1020.9 - 0.0
17/12:30pm 27.2 27.1 16.9 53 6.4 NE 13 19 7 10 1021.5 - 0.0
17/12:00pm 26.2 25.9 16.4 54 6.0 NE 13 20 7 11 1022.2 1022.2 0.0
17/11:30am 25.5 25.6 16.4 57 5.6 N 11 20 6 11 1022.8 - 0.0
17/11:00am 26.0 27.5 17.5 59 5.3 NE 6 9 3 5 1023.4 - 0.0
17/10:30am 25.3 26.4 17.2 61 5.0 ENE 7 11 4 6 1023.7 - 0.0
17/10:00am 24.4 25.0 16.9 63 4.6 NE 9 15 5 8 1024.0 - 0.0
17/09:30am 23.5 25.3 17.5 69 3.7 SW 4 9 2 5 1024.4 - 0.0
17/09:00am 22.4 24.7 17.7 75 2.9 SW 2 7 1 4 1024.6 1024.5 0.0
17/08:30am 20.4 22.7 16.8 80 2.2 CALM 0 7 0 4 1024.8 - 0.0
17/08:00am 19.3 20.4 17.0 86 1.4 SW 7 9 4 5 1024.7 - 0.0
17/07:30am 17.2 17.8 15.8 91 0.8 SSW 7 9 4 5 1024.7 - 0.0
17/07:00am 16.0 16.9 15.1 94 0.5 SSW 4 7 2 4 1024.5 - 0.0
17/06:30am 14.0 13.7 13.3 96 0.4 SSW 7 7 4 4 1023.9 - 0.0
17/06:00am 13.9 15.0 13.5 97 0.2 CALM 0 0 0 0 1023.5 1023.5 0.0
17/05:39am 14.0 15.1 13.5 97 0.3 CALM 0 0 0 0 1023.2 - 0.0
17/05:30am 13.5 13.7 12.9 96 0.3 SSW 4 7 2 4 1023.2 - 0.0
17/05:00am 13.7 13.4 13.3 97 0.2 SSW 7 9 4 5 1022.9 - 0.0
17/04:55am 13.5 13.3 12.9 96 0.3 SSW 6 9 3 5 1023.0 - 0.0
17/04:37am 14.1 13.9 13.7 97 0.2 SSW 7 9 4 5 1023.0 - 0.0
17/04:30am 14.3 14.2 13.9 97 0.2 SSW 7 9 4 5 1023.0 - 0.0
17/04:00am 14.2 15.3 13.5 96 0.4 CALM 0 0 0 0 1022.7 - 0.0
17/03:38am 15.2 16.7 14.7 97 0.3 CALM 0 0 0 0 1022.7 - 0.0
17/03:30am 15.3 16.8 14.6 96 0.4 CALM 0 0 0 0 1022.6 - 0.0
17/03:00am 15.6 17.3 15.1 97 0.3 CALM 0 0 0 0 1022.7 1022.7 0.0
17/02:30am 15.9 17.6 15.2 96 0.4 CALM 0 0 0 0 1022.7 - 0.0
17/02:00am 15.9 17.6 15.2 96 0.4 CALM 0 0 0 0 1023.0 - 0.0
17/01:30am 16.8 17.4 15.9 94 0.5 SSW 7 9 4 5 1023.3 - 0.0
17/01:00am 16.0 16.4 15.3 96 0.4 SSW 7 9 4 5 1023.5 - 0.0
17/12:30am 15.7 16.1 15.2 97 0.3 SSW 7 9 4 5 1023.8 - 0.0
17/12:00am 16.1 16.5 15.4 96 0.4 SSW 7 9 4 5 1023.9 1023.9 0.0
 
Date/Time
EST
Temp
°C
App
Temp
°C
Dew
Point
Rel
Hum
%
Delta-T
°C
Wind Press
QNH
hPa
Press
MSL
hPa
Rain
since 9 am
mm
Dir
 
Spd
km/h
Gust
km/h
Spd
kts
Gust
kts
16/11:30pm 15.7 17.3 15.0 96 0.4 CALM 0 6 0 3 1024.1 - 0.0
16/11:00pm 16.0 16.3 15.0 94 0.6 SSW 7 9 4 5 1024.3 - 0.0
16/10:30pm 15.9 17.5 14.9 94 0.6 CALM 0 6 0 3 1024.1 - 0.0
16/10:00pm 18.7 20.8 16.2 85 1.5 CALM 0 0 0 0 1024.3 - 0.0
16/09:30pm 18.8 19.5 16.1 84 1.6 E 7 7 4 4 1024.3 - 0.0
16/09:00pm 19.4 19.8 16.4 83 1.8 E 9 11 5 6 1023.9 1023.9 0.0
16/08:30pm 19.6 19.2 16.2 81 2.0 E 13 13 7 7 1023.9 - 0.0
16/08:00pm 20.6 21.1 16.6 78 2.4 E 9 13 5 7 1023.8 - 0.0
16/07:30pm 21.4 21.8 16.4 73 3.0 NE 9 11 5 6 1023.5 - 0.0
16/07:00pm 22.1 22.1 16.3 69 3.5 NE 11 15 6 8 1023.3 - 0.0
16/06:30pm 22.6 22.6 16.3 67 3.8 ENE 11 15 6 8 1023.1 - 0.0
16/06:00pm 23.1 22.3 16.0 64 4.3 ENE 15 19 8 10 1022.6 1022.6 0.0
16/05:30pm 23.9 22.6 15.8 60 4.9 NE 17 20 9 11 1022.3 - 0.0
16/05:00pm 25.3 24.2 15.3 54 6.0 NE 15 19 8 10 1021.9 - 0.0
16/04:30pm 26.1 24.9 14.1 47 7.1 ENE 13 17 7 9 1021.8 - 0.0
16/04:00pm 26.9 26.0 13.7 44 7.8 E 11 19 6 10 1021.8 - 0.0
16/03:30pm 26.8 25.6 14.0 45 7.6 ENE 13 15 7 8 1021.8 - 0.0
16/03:00pm 27.1 25.9 14.0 44 7.8 ENE 13 19 7 10 1022.0 1022.0 0.0
16/02:30pm 26.5 25.8 14.4 47 7.2 NE 11 19 6 10 1022.1 - 0.0
16/02:00pm 27.8 27.8 15.3 46 7.6 E 9 15 5 8 1022.2 - 0.0
16/01:30pm 27.1 27.0 16.0 50 6.8 ENE 11 17 6 9 1022.5 - 0.0
16/01:00pm 25.6 27.0 15.3 53 6.2 SE 2 9 1 5 1022.8 - 0.0
16/12:30pm 25.9 25.5 15.3 52 6.4 NNE 11 17 6 9 1023.2 - 0.0
16/12:00pm 26.4 27.4 16.3 53 6.2 ENE 6 13 3 7 1023.9 1023.9 0.0
16/11:30am 25.6 25.6 16.3 56 5.7 N 11 20 6 11 1024.7 - 0.0
16/11:00am 24.8 25.4 15.9 57 5.4 ENE 7 15 4 8 1025.3 - 0.0
16/10:30am 24.8 26.1 17.0 62 4.8 ESE 6 9 3 5 1025.9 - 0.0
16/10:00am 23.8 24.9 16.6 64 4.4 WNW 6 9 3 5 1026.2 - 0.0
16/09:30am 22.8 24.6 16.5 67 3.8 SW 2 9 1 5 1026.5 - 0.0
16/09:00am 21.4 22.5 16.6 74 2.9 SW 6 9 3 5 1026.6 1026.5 0.0
16/08:30am 19.7 20.6 16.2 80 2.1 SW 6 9 3 5 1026.7 - 0.0
16/08:00am 18.1 18.8 16.1 88 1.2 SW 7 9 4 5 1026.5 - 0.0
16/07:30am 16.7 17.2 15.0 90 1.0 S 6 7 3 4 1026.4 - 0.0
16/07:00am 15.1 16.5 14.4 96 0.4 CALM 0 0 0 0 1025.8 - 0.0

Other Formats:

Comma delimited format used in spreadsheet applications
http://www.bom.gov.au/fwo/IDQ60801/IDQ60801.94568.axf

JavaScript Object Notation format (JSON) in row-major order
http://www.bom.gov.au/fwo/IDQ60801/IDQ60801.94568.json